createdAt,value
2018-09-12T00:01:34.702Z,5.47
2018-09-12T00:04:03.277Z,5.03
2018-09-12T00:06:32.472Z,5.77
2018-09-12T00:09:01.013Z,4.20
2018-09-12T00:11:29.510Z,3.87
2018-09-12T00:13:58.672Z,5.30
2018-09-12T00:16:27.274Z,5.13
2018-09-12T00:18:55.812Z,5.27
2018-09-12T00:21:24.310Z,4.00
2018-09-12T00:23:52.903Z,4.97
2018-09-12T00:26:21.454Z,4.60
2018-09-12T00:28:50.035Z,7.90
2018-09-12T00:31:18.680Z,3.93
2018-09-12T00:33:47.219Z,4.37
2018-09-12T00:36:16.641Z,4.30
2018-09-12T00:38:45.169Z,5.50
2018-09-12T00:41:13.801Z,3.67
2018-09-12T00:43:42.376Z,4.07
2018-09-12T00:46:11.415Z,4.90
2018-09-12T00:48:39.973Z,4.47
2018-09-12T00:51:09.137Z,3.30
2018-09-12T00:53:38.359Z,5.33
2018-09-12T00:56:07.040Z,6.23
2018-09-12T00:58:36.125Z,3.93
2018-09-12T01:01:04.686Z,5.17
2018-09-12T01:03:33.228Z,6.23
2018-09-12T01:06:01.748Z,5.47
2018-09-12T01:08:30.336Z,4.23
2018-09-12T01:10:58.933Z,5.07
2018-09-12T01:13:27.456Z,3.90
2018-09-12T01:15:55.940Z,5.63
2018-09-12T01:18:24.507Z,6.33
2018-09-12T01:20:53.152Z,3.90
2018-09-12T01:23:22.133Z,4.07
2018-09-12T01:25:50.673Z,3.33
2018-09-12T01:28:19.148Z,4.10
2018-09-12T01:30:47.738Z,4.00
2018-09-12T01:33:16.295Z,4.17
2018-09-12T01:35:44.926Z,6.37
2018-09-12T01:38:13.502Z,6.30
2018-09-12T01:40:42.093Z,4.37
2018-09-12T01:43:10.684Z,4.20
2018-09-12T01:45:40.975Z,4.70
2018-09-12T01:48:09.744Z,3.67
2018-09-12T01:50:38.359Z,4.93
2018-09-12T01:53:06.993Z,5.80
2018-09-12T01:55:35.592Z,4.20
2018-09-12T01:58:04.373Z,4.60
2018-09-12T02:00:38.182Z,3.93
2018-09-12T02:03:06.992Z,4.83
2018-09-12T02:05:36.042Z,5.10
2018-09-12T02:08:04.540Z,6.00
2018-09-12T02:10:33.131Z,3.63
2018-09-12T02:13:01.681Z,5.73
2018-09-12T02:15:30.621Z,5.97
2018-09-12T02:17:59.246Z,4.63
2018-09-12T02:20:27.839Z,8.77
2018-09-12T02:22:56.882Z,5.87
2018-09-12T02:25:26.609Z,5.60
2018-09-12T02:27:55.122Z,5.13
2018-09-12T02:30:23.824Z,5.70
2018-09-12T02:32:52.336Z,6.23
2018-09-12T02:35:21.922Z,4.20
2018-09-12T02:37:50.465Z,7.03
2018-09-12T02:40:19.027Z,4.10
2018-09-12T02:42:47.554Z,4.20
2018-09-12T02:45:16.112Z,3.70
2018-09-12T02:47:44.699Z,4.43
2018-09-12T02:50:13.980Z,5.80
2018-09-12T02:52:42.743Z,4.13
2018-09-12T02:55:13.015Z,3.40
2018-09-12T02:57:41.658Z,5.50
2018-09-12T03:00:10.660Z,5.07
2018-09-12T03:02:39.187Z,4.20
2018-09-12T03:05:07.740Z,5.13
2018-09-12T03:07:36.260Z,4.23
2018-09-12T03:10:05.031Z,5.20
2018-09-12T03:12:33.520Z,4.93
2018-09-12T03:15:02.133Z,3.97
2018-09-12T03:17:30.634Z,5.73
2018-09-12T03:19:59.249Z,4.40
2018-09-12T03:22:27.796Z,5.97
2018-09-12T03:24:56.397Z,4.10
2018-09-12T03:27:25.636Z,5.87
2018-09-12T03:29:54.220Z,7.23
2018-09-12T03:32:23.465Z,5.20
2018-09-12T03:34:52.124Z,5.13
2018-09-12T03:37:21.364Z,5.00
2018-09-12T03:39:49.965Z,5.43
2018-09-12T03:42:18.556Z,4.73
2018-09-12T03:44:47.136Z,6.67
2018-09-12T03:47:15.657Z,4.27
2018-09-12T03:49:44.977Z,5.90
2018-09-12T03:52:13.472Z,5.43
2018-09-12T03:54:41.988Z,3.80
2018-09-12T03:57:11.741Z,5.07
2018-09-12T03:59:40.369Z,6.50
2018-09-12T04:02:08.984Z,4.67
2018-09-12T04:04:37.615Z,6.67
2018-09-12T04:07:06.836Z,4.07
2018-09-12T04:09:35.368Z,3.90
2018-09-12T04:12:04.674Z,4.50
2018-09-12T04:14:33.278Z,5.73
2018-09-12T04:17:02.868Z,4.87
2018-09-12T04:19:31.396Z,4.47
2018-09-12T04:21:59.919Z,5.43
2018-09-12T04:24:28.994Z,4.30
2018-09-12T04:26:58.932Z,6.70
2018-09-12T04:29:28.053Z,4.07
2018-09-12T04:31:56.589Z,3.03
2018-09-12T04:34:25.753Z,5.83
2018-09-12T04:36:54.332Z,3.80
2018-09-12T04:39:22.968Z,4.03
2018-09-12T04:41:51.562Z,5.03
2018-09-12T04:44:20.794Z,4.60
2018-09-12T04:46:49.513Z,5.77
2018-09-12T04:49:18.176Z,4.43
2018-09-12T04:51:47.983Z,4.07
2018-09-12T04:54:16.520Z,4.57
2018-09-12T04:56:45.171Z,6.90
2018-09-12T04:59:13.693Z,4.67
2018-09-12T05:01:43.484Z,4.23
2018-09-12T05:04:12.073Z,3.73
2018-09-12T05:06:40.721Z,5.33
2018-09-12T05:09:10.754Z,6.00
2018-09-12T05:11:39.400Z,4.20
2018-09-12T05:14:08.067Z,5.90
2018-09-12T05:16:36.594Z,5.20
2018-09-12T05:19:06.031Z,5.57
2018-09-12T05:25:06.224Z,4.77
2018-09-12T05:27:35.953Z,4.83
2018-09-12T05:30:04.793Z,5.47
2018-09-12T05:32:33.982Z,5.87
2018-09-12T05:35:03.285Z,4.07
2018-09-12T05:37:32.455Z,6.80
2018-09-12T05:40:01.278Z,5.67
2018-09-12T05:42:29.883Z,4.23
2018-09-12T05:44:58.452Z,4.87
2018-09-12T05:47:27.020Z,4.30
2018-09-12T05:49:55.784Z,5.27
2018-09-12T05:52:24.382Z,5.47
2018-09-12T05:54:52.976Z,4.00
2018-09-12T05:57:22.028Z,7.13
2018-09-12T05:59:50.609Z,7.23
2018-09-12T06:02:19.966Z,6.13
2018-09-12T06:04:48.621Z,6.97
2018-09-12T06:07:17.758Z,5.60
2018-09-12T06:09:47.469Z,8.17
2018-09-12T06:12:16.110Z,5.93
2018-09-12T06:14:44.624Z,7.07
2018-09-12T06:17:13.298Z,6.00
2018-09-12T06:19:43.892Z,5.63
2018-09-12T06:22:13.292Z,9.70
2018-09-12T06:24:41.886Z,7.97
2018-09-12T06:27:10.995Z,6.53
2018-09-12T06:29:40.788Z,6.80
2018-09-12T06:32:09.886Z,4.17
2018-09-12T06:34:38.439Z,4.30
2018-09-12T06:37:07.869Z,8.83
2018-09-12T06:39:36.403Z,5.60
2018-09-12T06:42:05.027Z,7.83
2018-09-12T06:44:33.564Z,10.67
2018-09-12T06:47:02.134Z,12.97
2018-09-12T06:49:30.635Z,18.00
2018-09-12T06:51:59.169Z,32.23
2018-09-12T06:54:27.703Z,30.07
2018-09-12T06:56:56.654Z,29.10
2018-09-12T06:59:25.249Z,24.30
2018-09-12T07:01:53.798Z,15.17
2018-09-12T07:04:22.522Z,10.93
2018-09-12T07:06:52.114Z,11.33
2018-09-12T07:09:20.751Z,8.23
2018-09-12T07:11:49.363Z,7.53
2018-09-12T07:14:18.021Z,7.30
2018-09-12T07:16:46.525Z,6.43
2018-09-12T07:19:15.803Z,7.90
2018-09-12T07:21:44.374Z,7.57
2018-09-12T07:24:12.927Z,6.77
2018-09-12T07:26:42.422Z,10.03
2018-09-12T07:29:10.980Z,7.03
2018-09-12T07:31:39.532Z,11.20
2018-09-12T07:34:08.393Z,8.60
2018-09-12T07:36:36.881Z,8.93
2018-09-12T07:39:08.635Z,6.80
2018-09-12T07:41:37.213Z,6.93
2018-09-12T07:44:05.852Z,7.47
2018-09-12T07:46:35.397Z,8.70
2018-09-12T07:49:04.059Z,8.13
2018-09-12T07:51:32.580Z,6.73
2018-09-12T07:54:02.899Z,8.07
2018-09-12T07:56:31.671Z,6.43
2018-09-12T07:59:00.144Z,8.93
2018-09-12T08:01:28.685Z,9.37
2018-09-12T08:03:57.244Z,8.23
2018-09-12T08:06:25.760Z,7.37
2018-09-12T08:08:54.267Z,9.93
2018-09-12T08:11:22.756Z,6.83
2018-09-12T08:13:51.679Z,7.40
2018-09-12T08:16:20.202Z,9.77
2018-09-12T08:18:49.426Z,5.70
2018-09-12T08:21:18.465Z,10.47
2018-09-12T08:23:47.921Z,7.57
2018-09-12T08:26:16.500Z,8.13
2018-09-12T08:28:45.115Z,7.93
2018-09-12T08:31:13.697Z,6.47
2018-09-12T08:33:42.175Z,8.23
2018-09-12T08:36:11.204Z,5.93
2018-09-12T08:38:39.860Z,9.27
2018-09-12T08:41:08.316Z,6.73
2018-09-12T08:43:36.730Z,5.77
2018-09-12T08:46:05.311Z,9.40
2018-09-12T08:48:33.761Z,9.73
2018-09-12T08:51:02.520Z,6.77
2018-09-12T08:53:30.959Z,5.97
2018-09-12T08:56:00.288Z,8.73
2018-09-12T08:58:28.725Z,4.90
2018-09-12T09:00:57.126Z,5.77
2018-09-12T09:03:25.568Z,7.93
2018-09-12T09:05:54.670Z,5.90
2018-09-12T09:08:23.193Z,5.40
2018-09-12T09:10:52.075Z,4.50
2018-09-12T09:13:20.772Z,5.97
2018-09-12T09:15:49.384Z,4.20
2018-09-12T09:18:17.940Z,6.27
2018-09-12T09:20:46.490Z,5.10
2018-09-12T09:23:15.050Z,6.10
2018-09-12T09:25:43.820Z,11.50
2018-09-12T09:28:12.306Z,5.57
2018-09-12T09:30:40.935Z,4.93
2018-09-12T09:33:09.832Z,5.23
2018-09-12T09:35:38.542Z,6.97
2018-09-12T09:38:07.338Z,8.57
2018-09-12T09:40:35.914Z,5.37
2018-09-12T09:43:04.515Z,7.00
2018-09-12T09:45:33.112Z,7.47
2018-09-12T09:48:01.752Z,7.43
2018-09-12T09:51:32.911Z,5.20
2018-09-12T09:54:01.597Z,8.13
2018-09-12T09:56:30.162Z,7.30
2018-09-12T09:58:58.720Z,9.33
2018-09-12T10:01:32.444Z,5.37
2018-09-12T10:04:06.212Z,6.13
2018-09-12T10:06:40.745Z,8.30
2018-09-12T10:09:14.899Z,5.50
2018-09-12T10:11:43.707Z,6.03
2018-09-12T10:14:12.135Z,5.17
2018-09-12T10:16:41.060Z,7.93
2018-09-12T10:19:10.128Z,6.87
2018-09-12T10:21:39.337Z,6.93
2018-09-12T10:24:07.952Z,4.22
2018-09-12T10:26:36.480Z,5.92
2018-09-12T10:29:05.042Z,6.77
2018-09-12T10:31:33.516Z,6.87
2018-09-12T10:34:02.017Z,9.50
2018-09-12T10:36:30.500Z,7.33
2018-09-12T10:38:59.003Z,4.65
2018-09-12T10:41:27.584Z,4.87
2018-09-12T10:43:56.120Z,3.97
2018-09-12T10:46:25.305Z,5.07
2018-09-12T10:48:54.304Z,3.77
2018-09-12T10:51:22.856Z,5.00
2018-09-12T10:53:51.340Z,4.37
2018-09-12T10:56:20.105Z,5.60
2018-09-12T10:58:49.527Z,6.50
2018-09-12T11:01:18.073Z,4.03
2018-09-12T11:03:47.467Z,5.23
2018-09-12T11:06:15.989Z,8.07
2018-09-12T11:08:44.595Z,3.33
2018-09-12T11:11:13.096Z,4.10
2018-09-12T11:13:41.605Z,4.47
2018-09-12T11:16:11.136Z,5.50
2018-09-12T11:18:39.600Z,4.27
2018-09-12T11:21:08.072Z,3.53
2018-09-12T11:23:36.607Z,6.80
2018-09-12T11:26:05.251Z,9.20
2018-09-12T11:28:33.765Z,3.57
2018-09-12T11:31:02.252Z,5.00
2018-09-12T11:33:30.736Z,4.47
2018-09-12T11:35:59.215Z,4.67
2018-09-12T11:38:27.728Z,3.97
2018-09-12T11:40:56.232Z,3.77
2018-09-12T11:43:24.733Z,4.47
2018-09-12T11:45:53.234Z,3.67
2018-09-12T11:48:21.723Z,3.63
2018-09-12T11:50:50.282Z,7.33
2018-09-12T11:53:18.759Z,2.93
2018-09-12T11:55:47.278Z,2.80
2018-09-12T11:58:15.853Z,3.30
2018-09-12T12:00:44.372Z,3.03
2018-09-12T12:03:13.460Z,3.33
2018-09-12T12:05:42.503Z,6.00
2018-09-12T12:08:11.040Z,3.43
2018-09-12T12:10:41.593Z,5.90
2018-09-12T12:13:10.108Z,6.27
2018-09-12T12:15:38.792Z,4.97
2018-09-12T12:18:07.266Z,5.50
2018-09-12T12:20:35.791Z,5.87
2018-09-12T12:23:04.359Z,4.50
2018-09-12T12:25:32.940Z,3.93
2018-09-12T12:28:01.394Z,3.93
2018-09-12T12:30:29.877Z,4.83
2018-09-12T12:32:58.492Z,5.60
2018-09-12T12:35:27.591Z,5.10
2018-09-12T12:37:56.086Z,3.40
2018-09-12T12:40:24.673Z,3.20
2018-09-12T12:42:53.687Z,8.23
2018-09-12T12:45:22.252Z,3.57
2018-09-12T12:47:50.701Z,5.87
2018-09-12T12:50:19.417Z,6.73
2018-09-12T12:52:47.937Z,3.87
2018-09-12T12:55:16.433Z,4.70
2018-09-12T12:57:44.900Z,3.50
2018-09-12T13:00:13.342Z,6.83
2018-09-12T13:02:42.455Z,4.53
2018-09-12T13:05:10.977Z,4.27
2018-09-12T13:07:39.576Z,3.73
2018-09-12T13:10:08.105Z,4.10
2018-09-12T13:12:36.581Z,8.63
2018-09-12T13:15:05.805Z,4.83
2018-09-12T13:17:34.365Z,6.43
2018-09-12T13:20:02.836Z,4.83
2018-09-12T13:22:31.368Z,6.10
2018-09-12T13:25:00.732Z,6.23
2018-09-12T13:27:29.805Z,3.70
2018-09-12T13:29:58.532Z,4.90
2018-09-12T13:32:27.288Z,3.93
2018-09-12T13:34:55.809Z,4.20
2018-09-12T13:37:24.328Z,4.93
2018-09-12T13:39:52.776Z,6.07
2018-09-12T13:42:21.382Z,6.70
2018-09-12T13:44:50.296Z,3.10
2018-09-12T13:47:19.507Z,5.77
2018-09-12T13:49:48.058Z,3.50
2018-09-12T13:52:16.504Z,5.33
2018-09-12T13:54:45.058Z,3.77
2018-09-12T13:57:13.709Z,4.47
2018-09-12T13:59:42.185Z,5.43
2018-09-12T14:02:10.720Z,4.50
2018-09-12T14:04:39.230Z,4.70
2018-09-12T14:07:07.781Z,3.97
2018-09-12T14:09:36.359Z,4.10
2018-09-12T14:12:05.401Z,3.83
2018-09-12T14:14:33.910Z,5.03
2018-09-12T14:17:02.491Z,5.90
2018-09-12T14:19:31.065Z,3.57
2018-09-12T14:21:59.545Z,4.60
2018-09-12T14:24:28.049Z,4.10
2018-09-12T14:26:56.605Z,3.83
2018-09-12T14:29:25.951Z,3.73
2018-09-12T14:31:54.507Z,4.00
2018-09-12T14:34:23.100Z,3.20
2018-09-12T14:36:51.769Z,4.23
2018-09-12T14:39:20.357Z,3.03
2018-09-12T14:41:49.601Z,4.23
2018-09-12T14:44:18.182Z,4.20
2018-09-12T14:46:46.720Z,4.43
2018-09-12T14:49:15.436Z,8.80
2018-09-12T14:51:43.984Z,4.43
2018-09-12T14:54:12.583Z,4.63
2018-09-12T14:56:41.479Z,3.77
2018-09-12T14:59:10.003Z,3.87
2018-09-12T15:01:38.602Z,5.33
2018-09-12T15:04:07.119Z,4.73
2018-09-12T15:06:36.367Z,4.13
2018-09-12T15:09:06.747Z,4.80
2018-09-12T15:11:35.249Z,3.30
2018-09-12T15:14:03.730Z,4.13
2018-09-12T15:16:32.254Z,8.43
2018-09-12T15:19:00.796Z,5.70
2018-09-12T15:21:29.954Z,4.97
2018-09-12T15:23:58.520Z,3.60
2018-09-12T15:26:27.799Z,4.97
2018-09-12T15:28:56.346Z,21.60
2018-09-12T15:31:25.364Z,7.43
2018-09-12T15:33:53.838Z,4.40
2018-09-12T15:36:22.384Z,3.43
2018-09-12T15:38:51.528Z,4.23
2018-09-12T15:41:20.038Z,6.13
2018-09-12T15:43:48.851Z,4.07
2018-09-12T15:46:17.396Z,3.53
2018-09-12T15:48:47.328Z,5.73
2018-09-12T15:51:15.785Z,7.57
2018-09-12T15:53:44.873Z,8.80
2018-09-12T15:56:13.402Z,3.60
2018-09-12T15:58:41.934Z,4.17
2018-09-12T16:01:10.448Z,3.63
2018-09-12T16:03:38.970Z,2.83
2018-09-12T16:06:08.021Z,4.43
2018-09-12T16:08:36.568Z,4.70
2018-09-12T16:11:05.150Z,4.93
2018-09-12T16:13:33.619Z,4.60
2018-09-12T16:16:02.138Z,4.10
2018-09-12T16:18:30.648Z,4.77
2018-09-12T16:20:59.720Z,4.77
2018-09-12T16:23:28.299Z,3.27
2018-09-12T16:25:59.173Z,5.03
2018-09-12T16:28:27.716Z,4.10
2018-09-12T16:30:56.225Z,5.07
2018-09-12T16:33:24.783Z,22.20
2018-09-12T16:35:53.295Z,9.10
2018-09-12T16:38:21.822Z,3.87
2018-09-12T16:40:50.866Z,3.60
2018-09-12T16:43:19.397Z,3.97
2018-09-12T16:45:48.534Z,4.83
2018-09-12T16:48:17.092Z,4.00
2018-09-12T16:50:45.630Z,4.57
2018-09-12T16:53:14.138Z,3.10
2018-09-12T16:55:42.664Z,3.47
2018-09-12T16:58:12.100Z,3.77
2018-09-12T17:00:40.560Z,7.80
2018-09-12T17:03:09.133Z,10.70
2018-09-12T17:05:38.226Z,17.20
2018-09-12T17:08:07.493Z,4.77
2018-09-12T17:10:35.953Z,10.70
2018-09-12T17:13:04.482Z,4.93
2018-09-12T17:15:32.977Z,3.90
2018-09-12T17:18:02.036Z,4.80
2018-09-12T17:20:30.588Z,4.63
2018-09-12T17:22:59.121Z,3.90
2018-09-12T17:25:27.643Z,3.10
2018-09-12T17:27:57.138Z,4.57
2018-09-12T17:30:25.840Z,3.37
2018-09-12T17:32:54.329Z,3.50
2018-09-12T17:35:22.860Z,5.00
2018-09-12T17:37:51.538Z,3.97
2018-09-12T17:40:30.480Z,5.50
2018-09-12T17:42:59.901Z,4.40
2018-09-12T17:45:28.817Z,2.40
2018-09-12T17:47:57.416Z,6.93
2018-09-12T17:50:25.994Z,11.57
2018-09-12T17:52:54.571Z,11.90
2018-09-12T17:55:23.758Z,12.70
2018-09-12T17:57:52.223Z,5.17
2018-09-12T18:00:21.330Z,9.50
2018-09-12T18:02:49.794Z,6.37
2018-09-12T18:05:18.351Z,15.50
2018-09-12T18:07:46.860Z,4.00
2018-09-12T18:10:15.388Z,5.57
2018-09-12T18:12:44.372Z,4.20
2018-09-12T18:15:12.849Z,4.13
2018-09-12T18:17:41.494Z,4.20
2018-09-12T18:20:10.050Z,3.07
2018-09-12T18:22:38.528Z,4.10
2018-09-12T18:25:07.069Z,4.57
2018-09-12T18:27:35.684Z,3.23
2018-09-12T18:30:04.327Z,4.93
2018-09-12T18:32:35.832Z,3.87
2018-09-12T18:35:04.365Z,5.23
2018-09-12T18:37:32.843Z,3.40
2018-09-12T18:40:01.392Z,5.17
2018-09-12T18:42:29.942Z,4.83
2018-09-12T18:44:58.459Z,3.87
2018-09-12T18:47:26.991Z,3.13
2018-09-12T18:49:55.502Z,4.47
2018-09-12T18:52:24.059Z,3.43
2018-09-12T18:54:54.388Z,3.63
2018-09-12T18:57:23.137Z,3.43
2018-09-12T18:59:53.824Z,5.30
2018-09-12T19:02:22.345Z,4.87
2018-09-12T19:04:50.927Z,3.63
2018-09-12T19:07:19.525Z,3.97
2018-09-12T19:09:48.138Z,3.90
2018-09-12T19:12:16.630Z,6.33
2018-09-12T19:14:45.127Z,3.97
2018-09-12T19:17:13.700Z,4.47
2018-09-12T19:19:49.583Z,3.03
2018-09-12T19:22:18.157Z,5.33
2018-09-12T19:24:48.139Z,3.80
2018-09-12T19:27:16.737Z,4.93
2018-09-12T19:29:45.437Z,6.00
2018-09-12T19:32:13.992Z,4.70
2018-09-12T19:34:42.585Z,3.87
2018-09-12T19:37:11.102Z,4.40
2018-09-12T19:39:39.676Z,3.93
2018-09-12T19:42:08.219Z,4.10
2018-09-12T19:44:36.672Z,5.27
2018-09-12T19:47:05.191Z,3.67
2018-09-12T19:49:34.480Z,3.30
2018-09-12T19:52:03.152Z,3.63
2018-09-12T19:54:32.514Z,4.57
2018-09-12T19:57:01.168Z,4.17
2018-09-12T19:59:29.722Z,3.97
2018-09-12T20:01:58.582Z,3.77
2018-09-12T20:04:27.092Z,5.27
2018-09-12T20:06:55.805Z,4.43
2018-09-12T20:09:25.144Z,4.53
2018-09-12T20:11:53.758Z,3.77
2018-09-12T20:14:23.779Z,4.63
2018-09-12T20:16:52.318Z,4.67
2018-09-12T20:19:21.360Z,3.90
2018-09-12T20:21:50.746Z,3.37
2018-09-12T20:24:19.266Z,5.57
2018-09-12T20:26:47.869Z,6.63
2018-09-12T20:29:16.420Z,5.53
2018-09-12T20:31:45.021Z,3.83
2018-09-12T20:34:13.514Z,5.57
2018-09-12T20:36:43.384Z,3.23
2018-09-12T20:39:12.454Z,6.47
2018-09-12T20:41:40.984Z,4.77
2018-09-12T20:44:10.263Z,7.00
2018-09-12T20:46:38.855Z,5.03
2018-09-12T20:49:07.408Z,4.17
2018-09-12T20:51:36.074Z,5.57
2018-09-12T20:54:04.949Z,7.07
2018-09-12T20:56:33.512Z,5.97
2018-09-12T20:59:02.091Z,4.77
2018-09-12T21:01:30.617Z,8.37
2018-09-12T21:03:59.213Z,6.73
2018-09-12T21:06:27.769Z,4.37
2018-09-12T21:08:56.210Z,6.97
2018-09-12T21:11:24.695Z,3.60
2018-09-12T21:13:53.219Z,6.13
2018-09-12T21:16:21.743Z,4.43
2018-09-12T21:18:51.539Z,4.13
2018-09-12T21:21:20.912Z,3.83
2018-09-12T21:23:50.675Z,3.77
2018-09-12T21:26:19.216Z,6.57
2018-09-12T21:28:47.810Z,4.83
2018-09-12T21:31:16.397Z,7.87
2018-09-12T21:33:45.013Z,7.83
2018-09-12T21:36:13.851Z,8.60
2018-09-12T21:38:43.309Z,12.90
2018-09-12T21:41:11.897Z,9.83
2018-09-12T21:43:40.529Z,9.77
2018-09-12T21:46:09.152Z,11.70
2018-09-12T21:48:38.352Z,13.40
2018-09-12T21:51:07.038Z,19.17
2018-09-12T21:53:35.532Z,14.00
2018-09-12T21:56:05.159Z,13.00
2018-09-12T21:58:33.767Z,13.93
2018-09-12T22:01:02.458Z,16.93
2018-09-12T22:03:31.073Z,13.07
2018-09-12T22:05:59.663Z,13.60
2018-09-12T22:08:28.221Z,16.60
2018-09-12T22:10:56.831Z,15.23
2018-09-12T22:13:25.455Z,16.57
2018-09-12T22:15:54.747Z,19.50
2018-09-12T22:18:23.290Z,22.10
2018-09-12T22:20:51.840Z,20.23
2018-09-12T22:23:20.461Z,17.47
2018-09-12T22:25:49.016Z,18.23
2018-09-12T22:28:17.678Z,23.30
2018-09-12T22:30:46.287Z,19.93
2018-09-12T22:33:14.932Z,17.73
2018-09-12T22:35:44.193Z,21.03
2018-09-12T22:38:12.813Z,21.87
2018-09-12T22:40:41.334Z,21.60
2018-09-12T22:43:09.925Z,21.57
2018-09-12T22:45:38.510Z,18.43
2018-09-12T22:48:07.126Z,21.50
2018-09-12T22:50:35.636Z,16.27
2018-09-12T22:53:04.154Z,15.67
2018-09-12T22:55:32.833Z,12.13
2018-09-12T22:58:01.501Z,15.40
2018-09-12T23:00:30.407Z,15.23
2018-09-12T23:02:58.964Z,15.37
2018-09-12T23:05:27.579Z,14.40
2018-09-12T23:07:56.128Z,15.13
2018-09-12T23:10:24.579Z,14.37
2018-09-12T23:12:53.776Z,14.33
2018-09-12T23:15:22.238Z,16.37
2018-09-12T23:17:50.831Z,16.00
2018-09-12T23:20:19.387Z,13.07
2018-09-12T23:22:49.040Z,14.40
2018-09-12T23:25:17.600Z,12.30
2018-09-12T23:27:46.139Z,14.83
2018-09-12T23:30:14.757Z,15.50
2018-09-12T23:32:43.246Z,14.47
2018-09-12T23:35:11.695Z,12.63
2018-09-12T23:37:40.184Z,13.77
2018-09-12T23:40:08.685Z,14.23
2018-09-12T23:42:37.196Z,13.07
2018-09-12T23:45:06.851Z,12.60
2018-09-12T23:47:35.393Z,12.70
2018-09-12T23:50:03.843Z,14.33
2018-09-12T23:52:32.309Z,16.87
2018-09-12T23:55:01.430Z,19.07
2018-09-12T23:57:29.894Z,14.57
2018-09-12T23:59:58.529Z,20.07
